createdAt,value
2022-10-07T00:00:54.227Z,85.75
2022-10-07T00:01:54.126Z,85.96
2022-10-07T00:02:54.095Z,85.86
2022-10-07T00:03:54.079Z,85.75
2022-10-07T00:04:54.111Z,85.86
2022-10-07T00:05:54.054Z,85.79
2022-10-07T00:06:54.053Z,85.59
2022-10-07T00:07:54.048Z,85.69
2022-10-07T00:08:54.020Z,85.59
2022-10-07T00:09:54.004Z,85.59
2022-10-07T00:10:54.012Z,85.49
2022-10-07T00:11:54.013Z,85.49
2022-10-07T00:12:53.979Z,85.38
2022-10-07T00:13:53.967Z,85.28
2022-10-07T00:14:53.953Z,85.07
2022-10-07T00:15:53.958Z,85.28
2022-10-07T00:16:54.060Z,85.38
2022-10-07T00:17:53.944Z,85.49
2022-10-07T00:18:53.914Z,85.59
2022-10-07T00:19:53.896Z,85.59
2022-10-07T00:20:53.886Z,85.42
2022-10-07T00:21:53.897Z,85.22
2022-10-07T00:22:53.867Z,85.01
2022-10-07T00:23:53.854Z,85.11
2022-10-07T00:24:53.846Z,85.42
2022-10-07T00:25:53.834Z,85.73
2022-10-07T00:26:53.832Z,85.83
2022-10-07T00:27:53.810Z,85.83
2022-10-07T00:28:53.798Z,85.83
2022-10-07T00:29:53.790Z,85.83
2022-10-07T00:30:53.839Z,85.73
2022-10-07T00:31:57.219Z,85.63
2022-10-07T00:32:53.757Z,85.73
2022-10-07T00:33:53.758Z,85.63
2022-10-07T00:34:53.737Z,85.83
2022-10-07T00:35:53.732Z,85.94
2022-10-07T00:36:53.715Z,85.83
2022-10-07T00:37:53.739Z,86.04
2022-10-07T00:38:53.706Z,86.04
2022-10-07T00:39:53.691Z,86.15
2022-10-07T00:40:53.673Z,86.24
2022-10-07T00:41:53.671Z,86.24
2022-10-07T00:42:53.654Z,86.15
2022-10-07T00:43:53.657Z,86.04
2022-10-07T00:44:53.633Z,86.18
2022-10-07T00:45:54.648Z,86.18
2022-10-07T00:46:53.656Z,86.04
2022-10-07T00:47:53.603Z,86.18
2022-10-07T00:48:53.582Z,86.18
2022-10-07T00:49:53.574Z,86.08
2022-10-07T00:50:53.579Z,86.18
2022-10-07T00:51:53.558Z,86.18
2022-10-07T00:52:53.548Z,86.39
2022-10-07T00:53:53.535Z,86.39
2022-10-07T00:54:53.518Z,86.39
2022-10-07T00:55:53.528Z,86.18
2022-10-07T00:56:53.496Z,85.97
2022-10-07T00:57:53.506Z,85.87
2022-10-07T00:58:53.470Z,85.77
2022-10-07T00:59:53.465Z,85.87
2022-10-07T01:00:53.493Z,85.77
2022-10-07T01:01:53.438Z,85.87
2022-10-07T01:02:53.536Z,85.97
2022-10-07T01:03:53.428Z,85.97
2022-10-07T01:04:53.428Z,85.87
2022-10-07T01:05:53.426Z,85.87
2022-10-07T01:06:53.396Z,85.97
2022-10-07T01:07:58.289Z,86.08
2022-10-07T01:08:54.368Z,86.29
2022-10-07T01:09:53.359Z,86.18
2022-10-07T01:10:54.303Z,86.39
2022-10-07T01:11:53.340Z,86.08
2022-10-07T01:12:53.329Z,85.87
2022-10-07T01:13:53.316Z,86.02
2022-10-07T01:14:53.308Z,85.91
2022-10-07T01:15:53.293Z,85.81
2022-10-07T01:16:53.359Z,85.71
2022-10-07T01:17:53.299Z,85.81
2022-10-07T01:18:53.253Z,85.71
2022-10-07T01:19:53.252Z,85.60
2022-10-07T01:20:53.244Z,85.50
2022-10-07T01:21:53.226Z,85.60
2022-10-07T01:22:53.210Z,85.50
2022-10-07T01:23:53.207Z,85.39
2022-10-07T01:24:53.204Z,85.60
2022-10-07T01:25:53.192Z,85.81
2022-10-07T01:26:53.175Z,86.02
2022-10-07T01:27:53.175Z,86.16
2022-10-07T01:28:53.167Z,86.47
2022-10-07T01:29:53.139Z,86.36
2022-10-07T01:30:53.216Z,86.43
2022-10-07T01:31:53.138Z,86.22
2022-10-07T01:32:53.124Z,86.43
2022-10-07T01:33:53.098Z,86.32
2022-10-07T01:34:53.102Z,86.32
2022-10-07T01:35:53.076Z,86.22
2022-10-07T01:36:53.080Z,86.22
2022-10-07T01:37:53.062Z,86.02
2022-10-07T01:38:53.044Z,85.81
2022-10-07T01:39:53.029Z,85.60
2022-10-07T01:40:53.014Z,85.71
2022-10-07T01:41:53.035Z,85.91
2022-10-07T01:42:52.990Z,85.91
2022-10-07T01:43:52.987Z,85.91
2022-10-07T01:44:52.999Z,85.91
2022-10-07T01:45:53.000Z,85.91
2022-10-07T01:46:52.946Z,85.91
2022-10-07T01:47:52.957Z,86.02
2022-10-07T01:48:52.922Z,86.12
2022-10-07T01:49:52.912Z,86.02
2022-10-07T01:50:52.912Z,86.12
2022-10-07T01:51:52.899Z,86.22
2022-10-07T01:52:52.906Z,86.12
2022-10-07T01:53:52.883Z,86.02
2022-10-07T01:54:52.868Z,86.02
2022-10-07T01:55:52.864Z,85.95
2022-10-07T01:56:52.850Z,85.81
2022-10-07T01:57:52.855Z,85.71
2022-10-07T01:58:52.814Z,85.39
2022-10-07T01:59:52.813Z,85.39
2022-10-07T02:00:52.821Z,85.44
2022-10-07T02:01:52.911Z,85.54
2022-10-07T02:02:52.784Z,85.75
2022-10-07T02:03:52.845Z,85.64
2022-10-07T02:04:52.746Z,85.64
2022-10-07T02:05:52.763Z,85.85
2022-10-07T02:06:52.734Z,86.05
2022-10-07T02:07:52.727Z,86.05
2022-10-07T02:08:52.706Z,85.95
2022-10-07T02:09:52.698Z,85.75
2022-10-07T02:10:52.697Z,85.85
2022-10-07T02:11:52.683Z,85.75
2022-10-07T02:12:52.678Z,85.44
2022-10-07T02:13:52.661Z,85.44
2022-10-07T02:14:52.639Z,85.54
2022-10-07T02:15:52.743Z,85.75
2022-10-07T02:16:52.632Z,85.75
2022-10-07T02:17:52.618Z,85.85
2022-10-07T02:18:52.598Z,85.85
2022-10-07T02:19:52.596Z,85.75
2022-10-07T02:20:52.591Z,85.64
2022-10-07T02:21:52.591Z,85.37
2022-10-07T02:22:52.559Z,85.37
2022-10-07T02:23:52.542Z,85.78
2022-10-07T02:24:52.532Z,86.30
2022-10-07T02:25:53.487Z,86.51
2022-10-07T02:26:53.486Z,86.36
2022-10-07T02:27:53.955Z,86.26
2022-10-07T02:28:52.526Z,86.41
2022-10-07T02:29:52.492Z,86.47
2022-10-07T02:30:52.535Z,86.61
2022-10-07T02:31:53.439Z,86.68
2022-10-07T02:32:52.453Z,86.47
2022-10-07T02:33:52.468Z,86.47
2022-10-07T02:34:52.431Z,86.57
2022-10-07T02:35:52.424Z,86.26
2022-10-07T02:36:52.404Z,86.26
2022-10-07T02:37:52.415Z,86.05
2022-10-07T02:38:52.402Z,86.41
2022-10-07T02:39:52.378Z,86.82
2022-10-07T02:40:52.399Z,86.92
2022-10-07T02:41:52.367Z,86.82
2022-10-07T02:42:52.336Z,86.71
2022-10-07T02:43:52.351Z,86.68
2022-10-07T02:44:52.307Z,86.71
2022-10-07T02:45:52.309Z,86.61
2022-10-07T02:46:52.297Z,86.57
2022-10-07T02:47:52.312Z,86.47
2022-10-07T02:48:52.286Z,86.26
2022-10-07T02:49:52.258Z,86.20
2022-10-07T02:50:52.248Z,86.20
2022-10-07T02:51:52.246Z,86.20
2022-10-07T02:52:52.229Z,86.20
2022-10-07T02:53:52.229Z,86.20
2022-10-07T02:54:52.219Z,86.30
2022-10-07T02:55:52.205Z,86.41
2022-10-07T02:56:52.203Z,86.20
2022-10-07T02:57:52.180Z,86.20
2022-10-07T02:58:52.187Z,86.30
2022-10-07T02:59:52.172Z,86.51
2022-10-07T03:00:52.186Z,86.51
2022-10-07T03:01:52.186Z,86.51
2022-10-07T03:02:52.118Z,86.61
2022-10-07T03:03:52.214Z,86.41
2022-10-07T03:04:52.102Z,86.30
2022-10-07T03:05:52.090Z,86.10
2022-10-07T03:06:52.078Z,86.10
2022-10-07T03:07:52.067Z,86.41
2022-10-07T03:08:52.054Z,86.41
2022-10-07T03:09:52.045Z,86.30
2022-10-07T03:10:52.044Z,86.10
2022-10-07T03:11:52.025Z,86.10
2022-10-07T03:12:52.017Z,86.20
2022-10-07T03:13:52.025Z,86.34
2022-10-07T03:14:51.994Z,86.44
2022-10-07T03:15:53.045Z,86.55
2022-10-07T03:16:51.977Z,86.44
2022-10-07T03:17:51.962Z,86.44
2022-10-07T03:18:51.978Z,86.44
2022-10-07T03:19:51.936Z,86.55
2022-10-07T03:20:51.927Z,86.55
2022-10-07T03:21:51.940Z,86.44
2022-10-07T03:22:51.897Z,86.24
2022-10-07T03:23:51.908Z,86.34
2022-10-07T03:24:51.879Z,86.34
2022-10-07T03:25:51.888Z,86.03
2022-10-07T03:26:51.858Z,85.93
2022-10-07T03:27:51.867Z,86.03
2022-10-07T03:28:51.841Z,86.13
2022-10-07T03:29:51.826Z,86.13
2022-10-07T03:30:51.862Z,86.13
2022-10-07T03:31:51.798Z,86.13
2022-10-07T03:32:51.812Z,86.13
2022-10-07T03:33:51.789Z,86.13
2022-10-07T03:34:51.770Z,85.93
2022-10-07T03:35:51.761Z,85.83
2022-10-07T03:36:51.769Z,85.83
2022-10-07T03:37:51.750Z,86.03
2022-10-07T03:38:51.730Z,86.24
2022-10-07T03:39:51.711Z,86.13
2022-10-07T03:40:51.706Z,86.24
2022-10-07T03:41:51.703Z,86.24
2022-10-07T03:42:51.690Z,86.34
2022-10-07T03:43:51.685Z,86.34
2022-10-07T03:44:51.744Z,86.44
2022-10-07T03:45:51.652Z,86.44
2022-10-07T03:46:51.743Z,86.44
2022-10-07T03:47:51.652Z,86.34
2022-10-07T03:48:51.645Z,86.44
2022-10-07T03:49:51.615Z,86.44
2022-10-07T03:50:51.604Z,86.34
2022-10-07T03:51:51.573Z,86.34
2022-10-07T03:52:51.586Z,86.34
2022-10-07T03:53:51.564Z,86.44
2022-10-07T03:54:51.583Z,86.55
2022-10-07T03:55:51.551Z,86.65
2022-10-07T03:56:51.528Z,86.55
2022-10-07T03:57:55.472Z,86.65
2022-10-07T03:58:52.555Z,86.44
2022-10-07T03:59:51.507Z,86.44
2022-10-07T04:00:51.492Z,86.44
2022-10-07T04:01:51.528Z,86.59
2022-10-07T04:02:51.508Z,86.65
2022-10-07T04:03:51.453Z,86.90
2022-10-07T04:04:51.467Z,86.90
2022-10-07T04:05:52.383Z,87.00
2022-10-07T04:06:52.372Z,87.21
2022-10-07T04:07:51.411Z,87.10
2022-10-07T04:08:51.425Z,87.10
2022-10-07T04:09:51.390Z,87.00
2022-10-07T04:10:51.400Z,86.90
2022-10-07T04:11:51.369Z,86.79
2022-10-07T04:12:51.364Z,86.69
2022-10-07T04:13:51.391Z,86.59
2022-10-07T04:14:51.337Z,86.49
2022-10-07T04:15:51.393Z,86.38
2022-10-07T04:16:51.330Z,86.18
2022-10-07T04:17:51.290Z,86.07
2022-10-07T04:18:51.312Z,85.86
2022-10-07T04:19:51.284Z,85.86
2022-10-07T04:20:51.275Z,85.97
2022-10-07T04:21:51.272Z,86.28
2022-10-07T04:22:51.253Z,86.28
2022-10-07T04:23:51.231Z,86.38
2022-10-07T04:24:51.245Z,86.49
2022-10-07T04:25:51.213Z,86.28
2022-10-07T04:26:51.205Z,86.28
2022-10-07T04:27:52.184Z,86.28
2022-10-07T04:28:51.230Z,86.38
2022-10-07T04:29:51.178Z,86.49
2022-10-07T04:30:51.170Z,86.49
2022-10-07T04:31:51.191Z,86.38
2022-10-07T04:32:51.142Z,86.28
2022-10-07T04:33:51.123Z,86.38
2022-10-07T04:34:51.129Z,86.28
2022-10-07T04:35:51.125Z,86.28
2022-10-07T04:36:51.095Z,86.42
2022-10-07T04:37:51.089Z,86.52
2022-10-07T04:38:51.075Z,86.49
2022-10-07T04:40:00.811Z,86.38
2022-10-07T04:40:52.056Z,86.38
2022-10-07T04:41:51.035Z,86.32
2022-10-07T04:42:51.028Z,86.18
2022-10-07T04:43:55.269Z,86.21
2022-10-07T04:44:52.133Z,86.32
2022-10-07T04:45:51.002Z,86.42
2022-10-07T04:46:51.021Z,86.52
2022-10-07T04:47:50.960Z,86.42
2022-10-07T04:48:50.976Z,86.52
2022-10-07T04:49:50.976Z,86.52
2022-10-07T04:50:50.942Z,86.73
2022-10-07T04:51:50.942Z,86.83
2022-10-07T04:52:50.918Z,86.94
2022-10-07T04:53:55.678Z,86.73
2022-10-07T04:54:51.909Z,86.63
2022-10-07T04:55:50.879Z,86.83
2022-10-07T04:56:50.891Z,86.94
2022-10-07T04:57:50.860Z,87.04
2022-10-07T04:58:50.863Z,87.04
2022-10-07T04:59:50.858Z,86.83
2022-10-07T05:00:50.957Z,86.63
2022-10-07T05:01:50.885Z,86.73
2022-10-07T05:02:50.812Z,86.73
2022-10-07T05:03:50.797Z,86.73
2022-10-07T05:04:50.804Z,86.83
2022-10-07T05:05:50.780Z,87.04
2022-10-07T05:06:50.784Z,87.15
2022-10-07T05:07:50.754Z,87.25
2022-10-07T05:08:50.736Z,87.35
2022-10-07T05:09:50.736Z,87.15
2022-10-07T05:10:50.720Z,87.04
2022-10-07T05:11:50.727Z,87.04
2022-10-07T05:12:55.712Z,86.94
2022-10-07T05:13:51.691Z,86.83
2022-10-07T05:14:50.766Z,86.67
2022-10-07T05:15:50.709Z,86.67
2022-10-07T05:16:50.659Z,86.83
2022-10-07T05:17:50.665Z,86.98
2022-10-07T05:18:50.638Z,87.08
2022-10-07T05:19:50.616Z,87.18
2022-10-07T05:20:50.617Z,86.94
2022-10-07T05:21:50.605Z,86.77
2022-10-07T05:22:51.237Z,86.73
2022-10-07T05:23:50.595Z,86.57
2022-10-07T05:24:50.577Z,86.46
2022-10-07T05:25:50.558Z,86.57
2022-10-07T05:26:50.562Z,86.77
2022-10-07T05:27:50.532Z,86.88
2022-10-07T05:28:50.608Z,86.98
2022-10-07T05:29:50.511Z,88.43
2022-10-07T05:30:50.501Z,87.97
2022-10-07T05:31:50.577Z,87.46
2022-10-07T05:32:50.572Z,86.94
2022-10-07T05:33:50.483Z,87.15
2022-10-07T05:34:50.470Z,87.15
2022-10-07T05:35:50.471Z,87.29
2022-10-07T05:36:50.446Z,87.25
2022-10-07T05:37:51.468Z,87.04
2022-10-07T05:38:50.412Z,86.94
2022-10-07T05:39:50.399Z,87.15
2022-10-07T05:40:50.395Z,87.04
2022-10-07T05:41:50.392Z,86.73
2022-10-07T05:42:50.371Z,86.52
2022-10-07T05:43:50.361Z,86.32
2022-10-07T05:44:50.350Z,86.25
2022-10-07T05:45:50.386Z,86.32
2022-10-07T05:46:50.348Z,86.63
2022-10-07T05:47:50.310Z,86.73
2022-10-07T05:48:50.313Z,86.73
2022-10-07T05:49:50.291Z,86.83
2022-10-07T05:50:50.313Z,86.94
2022-10-07T05:51:50.272Z,86.83
2022-10-07T05:52:50.264Z,86.83
2022-10-07T05:53:50.265Z,86.94
2022-10-07T05:54:50.235Z,86.94
2022-10-07T05:55:50.217Z,86.83
2022-10-07T05:56:50.212Z,86.73
2022-10-07T05:57:50.210Z,86.73
2022-10-07T05:58:50.236Z,86.73
2022-10-07T05:59:50.184Z,87.35
2022-10-07T06:00:50.197Z,87.76
2022-10-07T06:01:50.246Z,88.07
2022-10-07T06:02:50.346Z,88.07
2022-10-07T06:03:50.136Z,87.87
2022-10-07T06:04:50.206Z,87.56
2022-10-07T06:05:50.126Z,87.25
2022-10-07T06:06:50.141Z,87.21
2022-10-07T06:07:50.109Z,87.04
2022-10-07T06:08:50.104Z,87.35
2022-10-07T06:09:50.088Z,87.73
2022-10-07T06:10:50.065Z,88.14
2022-10-07T06:11:50.059Z,88.24
2022-10-07T06:12:50.069Z,88.24
2022-10-07T06:13:50.040Z,88.04
2022-10-07T06:14:50.026Z,87.83
2022-10-07T06:15:50.021Z,87.73
2022-10-07T06:16:50.190Z,87.62
2022-10-07T06:17:50.011Z,87.62
2022-10-07T06:18:49.996Z,87.58
2022-10-07T06:19:49.978Z,87.58
2022-10-07T06:20:49.962Z,87.68
2022-10-07T06:21:49.941Z,87.68
2022-10-07T06:22:49.957Z,87.68
2022-10-07T06:23:49.926Z,87.68
2022-10-07T06:24:49.913Z,87.58
2022-10-07T06:25:49.895Z,87.37
2022-10-07T06:26:49.914Z,87.23
2022-10-07T06:27:54.218Z,87.23
2022-10-07T06:28:49.902Z,87.13
2022-10-07T06:29:49.875Z,87.13
2022-10-07T06:30:49.914Z,87.13
2022-10-07T06:31:49.835Z,87.23
2022-10-07T06:32:49.845Z,87.54
2022-10-07T06:33:49.825Z,87.65
2022-10-07T06:34:49.843Z,87.60
2022-10-07T06:35:49.791Z,87.60
2022-10-07T06:36:49.783Z,87.40
2022-10-07T06:37:49.764Z,87.40
2022-10-07T06:38:49.776Z,87.50
2022-10-07T06:39:49.747Z,87.60
2022-10-07T06:40:49.740Z,88.12
2022-10-07T06:41:49.739Z,88.53
2022-10-07T06:42:49.716Z,88.49
2022-10-07T06:43:49.716Z,88.49
2022-10-07T06:44:49.687Z,88.49
2022-10-07T06:45:49.706Z,88.49
2022-10-07T06:46:49.687Z,88.49
2022-10-07T06:47:49.662Z,88.49
2022-10-07T06:48:49.662Z,88.45
2022-10-07T06:49:49.638Z,88.24
2022-10-07T06:50:49.627Z,88.04
2022-10-07T06:51:49.623Z,87.93
2022-10-07T06:52:49.609Z,88.04
2022-10-07T06:53:49.604Z,88.24
2022-10-07T06:54:50.549Z,88.31
2022-10-07T06:55:49.564Z,88.20
2022-10-07T06:56:49.571Z,88.31
2022-10-07T06:57:49.548Z,88.41
2022-10-07T06:58:49.554Z,88.41
2022-10-07T06:59:49.558Z,88.31
2022-10-07T07:00:49.592Z,88.20
2022-10-07T07:01:49.506Z,88.20
2022-10-07T07:02:49.672Z,88.17
2022-10-07T07:03:49.487Z,88.06
2022-10-07T07:04:52.893Z,87.96
2022-10-07T07:05:50.932Z,87.96
2022-10-07T07:06:49.454Z,87.85
2022-10-07T07:07:49.863Z,87.85
2022-10-07T07:08:49.445Z,87.65
2022-10-07T07:09:49.415Z,87.75
2022-10-07T07:10:49.408Z,87.60
2022-10-07T07:11:52.898Z,87.71
2022-10-07T07:12:50.172Z,87.71
2022-10-07T07:13:49.376Z,87.60
2022-10-07T07:14:49.365Z,87.60
2022-10-07T07:15:49.392Z,87.40
2022-10-07T07:16:49.425Z,87.26
2022-10-07T07:17:49.481Z,87.15
2022-10-07T07:18:49.319Z,87.15
2022-10-07T07:19:49.306Z,87.05
2022-10-07T07:20:49.305Z,86.95
2022-10-07T07:21:51.272Z,87.15
2022-10-07T07:22:49.268Z,87.22
2022-10-07T07:23:49.273Z,87.22
2022-10-07T07:24:49.254Z,87.22
2022-10-07T07:25:49.239Z,87.12
2022-10-07T07:26:49.258Z,87.22
2022-10-07T07:27:53.817Z,87.12
2022-10-07T07:28:50.247Z,87.18
2022-10-07T07:29:49.193Z,87.28
2022-10-07T07:30:49.220Z,86.87
2022-10-07T07:31:49.175Z,86.97
2022-10-07T07:32:49.170Z,86.97
2022-10-07T07:33:49.170Z,86.62
2022-10-07T07:34:49.211Z,86.52
2022-10-07T07:35:49.147Z,86.52
2022-10-07T07:36:49.124Z,86.72
2022-10-07T07:37:49.117Z,86.07
2022-10-07T07:38:49.105Z,85.86
2022-10-07T07:39:49.084Z,85.76
2022-10-07T07:40:49.098Z,85.55
2022-10-07T07:41:49.085Z,85.35
2022-10-07T07:42:49.067Z,85.21
2022-10-07T07:43:49.044Z,85.00
2022-10-07T07:44:49.992Z,85.00
2022-10-07T07:45:49.050Z,85.11
2022-10-07T07:46:49.027Z,85.00
2022-10-07T07:47:48.995Z,84.90
2022-10-07T07:48:48.982Z,84.69
2022-10-07T07:49:48.993Z,84.59
2022-10-07T07:50:48.957Z,84.45
2022-10-07T07:51:48.949Z,84.34
2022-10-07T07:52:49.361Z,84.34
2022-10-07T07:53:48.938Z,84.34
2022-10-07T07:54:48.937Z,83.94
2022-10-07T07:55:48.915Z,83.83
2022-10-07T07:56:48.918Z,83.63
2022-10-07T07:57:48.944Z,83.53
2022-10-07T07:58:48.868Z,83.42
2022-10-07T07:59:48.875Z,83.63
2022-10-07T08:00:48.878Z,83.28
2022-10-07T08:01:48.858Z,83.07
2022-10-07T08:02:48.890Z,83.49
2022-10-07T08:03:48.833Z,83.18
2022-10-07T08:04:48.811Z,83.18
2022-10-07T08:05:48.811Z,83.18
2022-10-07T08:06:48.811Z,83.07
2022-10-07T08:07:49.019Z,83.07
2022-10-07T08:08:48.761Z,83.04
2022-10-07T08:09:48.763Z,82.93
2022-10-07T08:10:51.937Z,82.73
2022-10-07T08:11:48.736Z,82.53
2022-10-07T08:12:48.731Z,82.42
2022-10-07T08:13:48.725Z,82.28
2022-10-07T08:14:48.706Z,82.18
2022-10-07T08:15:48.710Z,81.87
2022-10-07T08:16:48.673Z,82.49
2022-10-07T08:17:48.795Z,82.39
2022-10-07T08:18:48.674Z,82.39
2022-10-07T08:19:48.667Z,82.28
2022-10-07T08:20:48.634Z,82.28
2022-10-07T08:21:48.630Z,82.59
2022-10-07T08:22:48.621Z,82.59
2022-10-07T08:23:48.607Z,82.24
2022-10-07T08:24:48.615Z,82.14
2022-10-07T08:25:48.585Z,82.24
2022-10-07T08:26:48.568Z,82.04
2022-10-07T08:27:48.760Z,81.84
2022-10-07T08:28:48.565Z,81.59
2022-10-07T08:29:48.562Z,81.38
2022-10-07T08:30:48.566Z,80.98
2022-10-07T08:31:48.545Z,80.77
2022-10-07T08:32:48.529Z,81.29
2022-10-07T08:33:48.522Z,81.29
2022-10-07T08:34:48.487Z,80.98
2022-10-07T08:35:48.466Z,80.83
2022-10-07T08:36:48.454Z,81.15
2022-10-07T08:37:48.827Z,81.04
2022-10-07T08:38:51.121Z,80.74
2022-10-07T08:39:48.420Z,80.94
2022-10-07T08:40:48.422Z,80.63
2022-10-07T08:41:48.460Z,80.33
2022-10-07T08:42:49.346Z,80.22
2022-10-07T08:43:48.400Z,80.53
2022-10-07T08:44:48.381Z,80.63
2022-10-07T08:45:48.362Z,80.39
2022-10-07T08:46:48.346Z,80.49
2022-10-07T08:47:48.597Z,80.94
2022-10-07T08:48:48.327Z,80.90
2022-10-07T08:49:48.315Z,81.10
2022-10-07T08:50:48.302Z,80.90
2022-10-07T08:51:48.325Z,80.69
2022-10-07T08:52:48.305Z,80.39
2022-10-07T08:53:48.275Z,80.05
2022-10-07T08:54:48.259Z,79.84
2022-10-07T08:55:48.256Z,79.64
2022-10-07T08:56:48.269Z,79.64
2022-10-07T08:57:48.430Z,79.74
2022-10-07T08:58:48.207Z,80.56
2022-10-07T08:59:48.262Z,80.56
2022-10-07T09:00:50.328Z,80.35
2022-10-07T09:01:48.238Z,80.35
2022-10-07T09:02:48.213Z,81.07
2022-10-07T09:03:48.183Z,81.17
2022-10-07T09:04:48.147Z,81.07
2022-10-07T09:05:48.137Z,80.97
2022-10-07T09:06:48.138Z,80.42
2022-10-07T09:07:48.511Z,80.42
2022-10-07T09:08:48.088Z,80.32
2022-10-07T09:09:48.105Z,80.52
2022-10-07T09:10:48.079Z,81.24
2022-10-07T09:11:48.089Z,81.34
2022-10-07T09:12:48.051Z,81.13
2022-10-07T09:13:48.066Z,80.99
2022-10-07T09:14:48.036Z,80.99
2022-10-07T09:15:48.076Z,80.89
2022-10-07T09:16:48.011Z,81.20
2022-10-07T09:17:48.237Z,80.89
2022-10-07T09:18:47.991Z,80.14
2022-10-07T09:19:47.985Z,80.14
2022-10-07T09:20:47.992Z,80.14
2022-10-07T09:21:47.962Z,80.04
2022-10-07T09:22:47.962Z,80.20
2022-10-07T09:23:47.965Z,80.30
2022-10-07T09:24:47.938Z,80.00
2022-10-07T09:25:47.914Z,80.61
2022-10-07T09:26:47.905Z,80.30
2022-10-07T09:27:48.265Z,80.51
2022-10-07T09:28:47.963Z,80.47
2022-10-07T09:29:47.875Z,80.27
2022-10-07T09:30:47.874Z,80.37
2022-10-07T09:31:47.882Z,80.68
2022-10-07T09:32:47.852Z,80.68
2022-10-07T09:33:47.849Z,80.33
2022-10-07T09:34:47.815Z,80.23
2022-10-07T09:35:47.806Z,79.62
2022-10-07T09:36:47.806Z,79.32
2022-10-07T09:37:48.336Z,79.41
2022-10-07T09:38:47.786Z,79.62
2022-10-07T09:39:47.775Z,79.38
2022-10-07T09:40:47.755Z,79.07
2022-10-07T09:41:47.740Z,79.17
2022-10-07T09:42:47.740Z,79.38
2022-10-07T09:43:47.730Z,79.03
2022-10-07T09:44:47.711Z,78.73
2022-10-07T09:45:47.698Z,79.03
2022-10-07T09:46:47.811Z,78.63
2022-10-07T09:47:48.413Z,78.39
2022-10-07T09:48:47.671Z,78.19
2022-10-07T09:49:47.661Z,77.78
2022-10-07T09:50:47.640Z,77.74
2022-10-07T09:51:47.663Z,78.05
2022-10-07T09:52:47.621Z,78.45
2022-10-07T09:53:47.634Z,78.05
2022-10-07T09:54:47.600Z,77.94
2022-10-07T09:55:48.539Z,77.74
2022-10-07T09:56:47.574Z,77.13
2022-10-07T09:57:47.828Z,77.09
2022-10-07T09:58:47.554Z,77.20
2022-10-07T09:59:47.546Z,76.59
2022-10-07T10:00:47.526Z,76.59
2022-10-07T10:01:47.553Z,77.09
2022-10-07T10:02:47.685Z,76.79
2022-10-07T10:03:47.559Z,76.04
2022-10-07T10:04:47.514Z,75.43
2022-10-07T10:05:47.517Z,75.43
2022-10-07T10:06:47.456Z,75.33
2022-10-07T10:07:47.684Z,75.02
2022-10-07T10:08:47.444Z,74.58
2022-10-07T10:09:47.432Z,74.48
2022-10-07T10:10:47.466Z,74.48
2022-10-07T10:11:47.469Z,74.68
2022-10-07T10:12:47.767Z,74.48
2022-10-07T10:13:47.405Z,74.38
2022-10-07T10:14:47.390Z,74.14
2022-10-07T10:15:47.414Z,74.24
2022-10-07T10:16:47.355Z,74.24
2022-10-07T10:17:47.355Z,74.34
2022-10-07T10:18:47.335Z,73.83
2022-10-07T10:19:47.317Z,73.53
2022-10-07T10:20:47.322Z,73.74
2022-10-07T10:21:47.301Z,72.82
2022-10-07T10:22:47.786Z,72.89
2022-10-07T10:23:47.276Z,72.99
2022-10-07T10:24:47.275Z,72.69
2022-10-07T10:25:47.259Z,72.48
2022-10-07T10:26:47.243Z,72.69
2022-10-07T10:27:47.243Z,72.58
2022-10-07T10:28:47.223Z,72.58
2022-10-07T10:29:47.222Z,72.69
2022-10-07T10:30:47.250Z,72.45
2022-10-07T10:31:47.215Z,72.25
2022-10-07T10:32:47.701Z,71.64
2022-10-07T10:33:47.167Z,70.11
2022-10-07T10:34:47.149Z,68.70
2022-10-07T10:35:47.176Z,68.79
2022-10-07T10:36:47.170Z,66.97
2022-10-07T10:37:47.138Z,66.74
2022-10-07T10:38:47.105Z,66.02
2022-10-07T10:39:47.123Z,66.13
2022-10-07T10:40:47.106Z,65.62
2022-10-07T10:41:47.082Z,65.21
2022-10-07T10:42:47.605Z,65.42
2022-10-07T10:43:47.054Z,65.42
2022-10-07T10:44:47.056Z,65.48
2022-10-07T10:45:47.047Z,65.28
2022-10-07T10:46:51.130Z,65.39
2022-10-07T10:47:48.015Z,65.59
2022-10-07T10:48:47.010Z,66.09
2022-10-07T10:49:47.009Z,66.57
2022-10-07T10:50:46.971Z,66.06
2022-10-07T10:51:46.976Z,66.06
2022-10-07T10:52:47.522Z,65.86
2022-10-07T10:53:46.944Z,64.75
2022-10-07T10:54:46.970Z,64.72
2022-10-07T10:55:46.931Z,64.61
2022-10-07T10:56:46.906Z,63.90
2022-10-07T10:57:46.956Z,63.60
2022-10-07T10:58:46.890Z,64.01
2022-10-07T10:59:46.887Z,64.92
2022-10-07T11:00:46.858Z,64.61
2022-10-07T11:01:46.894Z,64.31
2022-10-07T11:02:47.133Z,64.01
2022-10-07T11:03:46.847Z,64.01
2022-10-07T11:04:46.821Z,64.01
2022-10-07T11:05:46.823Z,64.07
2022-10-07T11:06:46.790Z,63.17
2022-10-07T11:07:46.817Z,62.76
2022-10-07T11:08:46.768Z,62.35
2022-10-07T11:09:46.770Z,62.76
2022-10-07T11:10:46.748Z,63.37
2022-10-07T11:11:46.738Z,63.17
2022-10-07T11:12:47.278Z,63.27
2022-10-07T11:13:46.722Z,63.13
2022-10-07T11:14:46.705Z,62.73
2022-10-07T11:15:46.773Z,62.12
2022-10-07T11:16:47.112Z,61.92
2022-10-07T11:17:46.686Z,61.52
2022-10-07T11:18:46.665Z,61.52
2022-10-07T11:19:46.665Z,62.12
2022-10-07T11:20:46.645Z,61.32
2022-10-07T11:21:46.637Z,60.91
2022-10-07T11:22:47.128Z,60.91
2022-10-07T11:23:46.635Z,60.91
2022-10-07T11:24:46.599Z,60.91
2022-10-07T11:25:46.593Z,61.32
2022-10-07T11:26:46.590Z,61.90
2022-10-07T11:27:46.612Z,61.69
2022-10-07T11:28:46.538Z,61.69
2022-10-07T11:29:46.558Z,60.68
2022-10-07T11:30:46.533Z,60.17
2022-10-07T11:31:46.657Z,60.27
2022-10-07T11:32:46.802Z,60.17
2022-10-07T11:33:46.500Z,60.07
2022-10-07T11:34:48.941Z,60.17
2022-10-07T11:35:47.490Z,60.17
2022-10-07T11:36:46.475Z,60.27
2022-10-07T11:37:46.460Z,60.38
2022-10-07T11:38:46.443Z,60.17
2022-10-07T11:39:46.432Z,60.38
2022-10-07T11:40:46.442Z,60.48
2022-10-07T11:41:46.425Z,60.48
2022-10-07T11:42:46.820Z,60.58
2022-10-07T11:43:46.404Z,60.68
2022-10-07T11:44:46.373Z,60.98
2022-10-07T11:45:46.372Z,60.38
2022-10-07T11:46:46.393Z,60.25
2022-10-07T11:47:46.354Z,59.84
2022-10-07T11:48:46.374Z,59.23
2022-10-07T11:49:46.329Z,59.34
2022-10-07T11:50:46.314Z,59.94
2022-10-07T11:51:46.316Z,60.35
2022-10-07T11:52:46.594Z,60.65
2022-10-07T11:53:46.283Z,60.62
2022-10-07T11:54:46.287Z,60.42
2022-10-07T11:55:46.463Z,59.71
2022-10-07T11:56:46.239Z,59.51
2022-10-07T11:57:46.236Z,59.31
2022-10-07T11:58:46.243Z,59.00
2022-10-07T11:59:46.223Z,58.70
2022-10-07T12:00:46.202Z,58.20
2022-10-07T12:01:46.223Z,58.50
2022-10-07T12:02:46.631Z,58.70
2022-10-07T12:03:46.187Z,58.40
2022-10-07T12:04:46.146Z,58.50
2022-10-07T12:05:46.131Z,58.20
2022-10-07T12:06:46.161Z,58.70
2022-10-07T12:07:46.120Z,58.60
2022-10-07T12:08:46.114Z,58.91
2022-10-07T12:09:46.134Z,58.60
2022-10-07T12:10:46.900Z,58.20
2022-10-07T12:11:46.080Z,57.59
2022-10-07T12:12:46.564Z,57.29
2022-10-07T12:13:46.073Z,57.79
2022-10-07T12:14:46.067Z,57.76
2022-10-07T12:15:46.042Z,57.36
2022-10-07T12:16:46.061Z,57.56
2022-10-07T12:17:46.025Z,57.67
2022-10-07T12:18:45.997Z,57.46
2022-10-07T12:19:45.996Z,57.46
2022-10-07T12:20:45.979Z,57.46
2022-10-07T12:21:45.976Z,57.69
2022-10-07T12:22:46.387Z,57.46
2022-10-07T12:23:46.902Z,57.49
2022-10-07T12:24:45.972Z,57.26
2022-10-07T12:25:45.935Z,56.96
2022-10-07T12:26:45.918Z,57.56
2022-10-07T12:27:45.932Z,57.56
2022-10-07T12:28:46.075Z,57.87
2022-10-07T12:29:45.873Z,57.67
2022-10-07T12:30:45.869Z,58.17
2022-10-07T12:31:45.897Z,57.97
2022-10-07T12:32:46.075Z,56.56
2022-10-07T12:33:45.851Z,56.35
2022-10-07T12:34:45.829Z,57.23
2022-10-07T12:35:48.777Z,57.64
2022-10-07T12:36:46.805Z,57.74
2022-10-07T12:37:45.798Z,57.84
2022-10-07T12:38:45.780Z,57.84
2022-10-07T12:39:45.867Z,57.43
2022-10-07T12:40:45.747Z,57.31
2022-10-07T12:41:45.760Z,57.10
2022-10-07T12:42:45.988Z,56.90
2022-10-07T12:43:45.718Z,56.70
2022-10-07T12:44:45.708Z,56.70
2022-10-07T12:45:45.768Z,57.01
2022-10-07T12:46:45.853Z,56.70
2022-10-07T12:47:45.664Z,56.40
2022-10-07T12:48:45.664Z,56.30
2022-10-07T12:49:45.648Z,56.10
2022-10-07T12:50:45.672Z,56.20
2022-10-07T12:51:45.635Z,56.81
2022-10-07T12:52:45.950Z,56.50